Time;durP1;ratioP1;P1;durP2;ratioP2;P2;SDS_P1;SDS_P2;PMS_P1;PMS_P2;Temp;Humidity;BMP_temperature;BMP_pressure;BME280_temperature;BME280_humidity;BME280_pressure;Samples;Min_cycle;Max_cycle;Signal;HPM_P1;HPM_P2
2021/04/03 00:00:37;;;;;;;;;;;21.30;39.60;;;;;;5048899;28;19966;-73
2021/04/03 00:03:04;;;;;;;;;;;21.20;39.50;;;;;;5052726;28;19908;-73
2021/04/03 00:05:30;;;;;;;;;;;21.20;39.50;;;;;;5052738;28;19909;-72
2021/04/03 00:07:56;;;;;;;;;;;21.20;39.60;;;;;;5054089;28;19908;-73
2021/04/03 00:10:22;;;;;;;;;;;21.00;39.60;;;;;;5050107;28;19908;-74
2021/04/03 00:12:49;;;;;;;;;;;21.00;40.10;;;;;;5050524;28;20006;-73
2021/04/03 00:15:15;;;;;;;;;;;21.00;40.30;;;;;;5037568;28;19909;-73
2021/04/03 00:17:42;;;;;;;;;;;20.90;40.50;;;;;;5055174;28;19955;-72
2021/04/03 00:20:12;;;;;;;;;;;20.80;40.60;;;;;;5038922;28;20238;-73
2021/04/03 00:22:38;;;;;;;;;;;20.90;41.00;;;;;;5056308;28;20297;-73
2021/04/03 00:25:04;;;;;;;;;;;21.00;40.60;;;;;;5050587;28;19909;-72
2021/04/03 00:27:30;;;;;;;;;;;20.80;41.10;;;;;;5050959;28;20254;-73
2021/04/03 00:29:56;;;;;;;;;;;20.90;40.70;;;;;;5051194;28;19917;-72
2021/04/03 00:32:23;;;;;;;;;;;20.80;41.10;;;;;;5051612;28;19920;-73
2021/04/03 00:34:49;;;;;;;;;;;20.50;41.30;;;;;;5049521;28;20039;-73
2021/04/03 00:37:15;;;;;;;;;;;20.30;41.80;;;;;;5050683;28;19920;-72
2021/04/03 00:39:41;;;;;;;;;;;20.20;42.30;;;;;;5056153;28;19909;-74
2021/04/03 00:42:14;;;;;;;;;;;20.00;42.70;;;;;;5050917;28;20357;-73
2021/04/03 00:44:43;;;;;;;;;;;19.70;43.60;;;;;;5050411;28;19919;-73
2021/04/03 00:47:09;;;;;;;;;;;19.30;44.50;;;;;;5047737;28;19925;-72
2021/04/03 00:49:35;;;;;;;;;;;18.80;45.30;;;;;;5057848;28;19959;-74
2021/04/03 00:52:04;;;;;;;;;;;18.40;46.30;;;;;;5040077;28;19982;-73
2021/04/03 00:54:30;;;;;;;;;;;18.20;46.90;;;;;;5057641;28;20322;-74
2021/04/03 00:56:56;;;;;;;;;;;17.90;47.70;;;;;;5056830;28;19908;-72
2021/04/03 00:59:22;;;;;;;;;;;17.70;47.80;;;;;;5057531;28;19909;-74
2021/04/03 01:01:48;;;;;;;;;;;17.50;48.60;;;;;;5023227;28;19904;-74
2021/04/03 01:04:14;;;;;;;;;;;17.30;48.80;;;;;;5039879;28;19959;-72
2021/04/03 01:06:40;;;;;;;;;;;17.00;49.50;;;;;;5057270;28;19905;-73
2021/04/03 01:09:06;;;;;;;;;;;16.80;50.20;;;;;;5057004;28;20219;-73
2021/04/03 01:11:34;;;;;;;;;;;16.60;50.20;;;;;;5057127;28;19922;-71
2021/04/03 01:14:27;;;;;;;;;;;16.50;50.70;;;;;;5057317;28;19962;-74
2021/04/03 01:16:57;;;;;;;;;;;16.50;51.20;;;;;;5049561;28;19904;-73
2021/04/03 01:19:41;;;;;;;;;;;16.30;51.40;;;;;;5055683;28;20397;-73
2021/04/03 01:22:29;;;;;;;;;;;16.20;52.10;;;;;;5056294;28;19911;-73
2021/04/03 01:24:55;;;;;;;;;;;15.90;52.90;;;;;;5055392;28;19935;-74
2021/04/03 01:27:25;;;;;;;;;;;15.50;53.90;;;;;;5048101;28;19913;-73
2021/04/03 01:29:54;;;;;;;;;;;15.50;53.70;;;;;;5053431;28;19912;-71
2021/04/03 01:32:46;;;;;;;;;;;15.30;54.90;;;;;;5048637;28;20015;-71
2021/04/03 01:35:21;;;;;;;;;;;15.20;55.20;;;;;;5030405;28;19909;-73
2021/04/03 01:37:49;;;;;;;;;;;15.20;55.20;;;;;;5035054;28;20346;-73
2021/04/03 01:40:18;;;;;;;;;;;15.00;55.90;;;;;;5044138;28;20327;-72
2021/04/03 01:42:45;;;;;;;;;;;15.00;56.30;;;;;;5036989;28;20035;-73
2021/04/03 01:45:12;;;;;;;;;;;14.70;57.40;;;;;;5055677;28;19904;-72
2021/04/03 01:47:39;;;;;;;;;;;14.70;57.10;;;;;;5056556;28;19909;-72
2021/04/03 01:50:05;;;;;;;;;;;14.60;57.10;;;;;;5052506;28;19951;-71
2021/04/03 01:52:32;;;;;;;;;;;14.50;58.10;;;;;;5038549;28;20235;-73
2021/04/03 01:54:59;;;;;;;;;;;14.40;57.10;;;;;;5052601;28;19916;-72
2021/04/03 01:57:28;;;;;;;;;;;14.40;57.70;;;;;;5034376;28;19913;-71
2021/04/03 01:59:54;;;;;;;;;;;14.30;58.00;;;;;;5055782;28;19995;-72
2021/04/03 02:02:21;;;;;;;;;;;14.30;58.20;;;;;;5055953;28;19915;-72
2021/04/03 02:04:47;;;;;;;;;;;14.10;57.80;;;;;;5055393;28;19940;-73
2021/04/03 02:07:17;;;;;;;;;;;14.10;57.20;;;;;;5056253;28;20283;-72
2021/04/03 02:09:46;;;;;;;;;;;14.20;57.60;;;;;;5056416;28;20003;-74
2021/04/03 02:12:13;;;;;;;;;;;14.20;57.80;;;;;;5049702;28;19977;-72
2021/04/03 02:14:39;;;;;;;;;;;14.20;56.80;;;;;;5056384;28;20042;-72
2021/04/03 02:17:05;;;;;;;;;;;14.10;56.50;;;;;;5058859;28;19916;-72
2021/04/03 02:19:33;;;;;;;;;;;14.20;57.50;;;;;;5047510;28;19909;-71
2021/04/03 02:22:00;;;;;;;;;;;14.10;56.40;;;;;;5051974;28;19924;-72
2021/04/03 02:24:27;;;;;;;;;;;14.20;58.10;;;;;;5052482;28;20330;-71
2021/04/03 02:26:53;;;;;;;;;;;14.10;58.20;;;;;;5053466;28;19913;-71
2021/04/03 02:29:19;;;;;;;;;;;14.10;58.10;;;;;;5053543;28;19919;-73
2021/04/03 02:31:45;;;;;;;;;;;14.00;57.60;;;;;;5050975;28;19927;-72
2021/04/03 02:34:11;;;;;;;;;;;13.90;58.80;;;;;;5050707;28;19912;-73
2021/04/03 02:36:37;;;;;;;;;;;13.80;58.30;;;;;;5055604;28;19912;-73
2021/04/03 02:39:03;;;;;;;;;;;13.80;58.50;;;;;;5054826;28;19909;-72
2021/04/03 02:41:49;;;;;;;;;;;13.60;57.70;;;;;;5054827;28;20245;-73
2021/04/03 02:44:34;;;;;;;;;;;13.60;58.40;;;;;;5042698;28;19984;-72
2021/04/03 02:47:07;;;;;;;;;;;13.60;58.50;;;;;;5035944;28;20281;-75
2021/04/03 02:49:39;;;;;;;;;;;13.70;58.60;;;;;;5052589;28;19909;-73
2021/04/03 02:52:06;;;;;;;;;;;13.70;58.10;;;;;;5054458;28;19920;-73
2021/04/03 02:54:33;;;;;;;;;;;13.90;58.10;;;;;;5052217;28;20011;-74
2021/04/03 02:57:00;;;;;;;;;;;13.60;58.80;;;;;;5047539;28;19920;-70
2021/04/03 02:59:28;;;;;;;;;;;13.50;58.80;;;;;;5049182;28;19992;-72
2021/04/03 03:01:55;;;;;;;;;;;13.50;58.10;;;;;;5049124;28;19919;-72
2021/04/03 03:04:21;;;;;;;;;;;13.50;58.70;;;;;;5053942;28;19954;-72
2021/04/03 03:06:48;;;;;;;;;;;13.50;58.10;;;;;;5051854;28;19919;-71
2021/04/03 03:09:15;;;;;;;;;;;13.80;58.20;;;;;;5050513;28;20345;-73
2021/04/03 03:11:44;;;;;;;;;;;13.70;58.40;;;;;;5054126;28;19913;-73
2021/04/03 03:14:13;;;;;;;;;;;13.60;59.40;;;;;;5053857;28;20234;-72
2021/04/03 03:16:41;;;;;;;;;;;13.60;58.20;;;;;;5048339;28;19970;-73
2021/04/03 03:19:11;;;;;;;;;;;13.60;58.50;;;;;;5050119;28;19963;-73
2021/04/03 03:21:38;;;;;;;;;;;13.60;57.70;;;;;;5052389;28;19917;-73
2021/04/03 03:24:08;;;;;;;;;;;13.50;57.90;;;;;;5049787;28;20322;-73
2021/04/03 03:26:35;;;;;;;;;;;13.30;57.80;;;;;;5051205;28;19927;-73
2021/04/03 03:29:03;;;;;;;;;;;13.30;58.80;;;;;;5049399;28;19951;-73
2021/04/03 03:31:29;;;;;;;;;;;13.40;57.60;;;;;;5053245;28;19917;-71
2021/04/03 03:33:56;;;;;;;;;;;13.30;59.00;;;;;;5051971;28;19909;-73
2021/04/03 03:36:22;;;;;;;;;;;13.30;58.20;;;;;;5052395;28;19971;-73
2021/04/03 03:38:48;;;;;;;;;;;13.40;58.20;;;;;;5048397;28;20007;-73
2021/04/03 03:41:15;;;;;;;;;;;13.50;58.40;;;;;;5051245;28;19935;-73
2021/04/03 03:43:41;;;;;;;;;;;13.40;57.90;;;;;;5054600;28;19916;-73
2021/04/03 03:46:07;;;;;;;;;;;13.40;57.30;;;;;;5054762;28;20361;-73
2021/04/03 03:48:33;;;;;;;;;;;13.40;56.80;;;;;;5054914;28;19958;-74
2021/04/03 03:51:00;;;;;;;;;;;13.40;57.80;;;;;;5051451;28;20351;-73
2021/04/03 03:53:26;;;;;;;;;;;13.30;57.80;;;;;;5031289;28;19912;-73
2021/04/03 03:55:55;;;;;;;;;;;13.30;57.10;;;;;;5052486;28;19944;-73
2021/04/03 03:58:21;;;;;;;;;;;13.20;57.80;;;;;;5051953;28;21426;-73
2021/04/03 04:00:48;;;;;;;;;;;13.20;57.40;;;;;;5051669;28;19920;-73
2021/04/03 04:03:14;;;;;;;;;;;13.20;56.60;;;;;;5051358;28;19992;-73
2021/04/03 04:05:40;;;;;;;;;;;13.20;57.10;;;;;;5053435;28;19952;-73
2021/04/03 04:08:06;;;;;;;;;;;13.10;57.50;;;;;;5058264;28;19916;-73
2021/04/03 04:10:33;;;;;;;;;;;12.90;57.50;;;;;;5053877;28;19937;-73
2021/04/03 04:13:01;;;;;;;;;;;13.00;58.80;;;;;;5056613;28;20342;-72
2021/04/03 04:15:27;;;;;;;;;;;13.00;56.90;;;;;;5055917;28;19904;-72
2021/04/03 04:17:53;;;;;;;;;;;12.90;57.80;;;;;;5053777;28;19909;-72
2021/04/03 04:20:19;;;;;;;;;;;12.70;58.80;;;;;;5040589;28;19913;-72
2021/04/03 04:22:45;;;;;;;;;;;12.90;58.40;;;;;;5040483;28;20373;-72
2021/04/03 04:25:11;;;;;;;;;;;12.90;56.40;;;;;;5057186;28;20004;-72
2021/04/03 04:27:37;;;;;;;;;;;12.70;59.20;;;;;;5056309;28;19909;-72
2021/04/03 04:30:11;;;;;;;;;;;12.70;58.20;;;;;;5057645;28;19915;-72
2021/04/03 04:32:38;;;;;;;;;;;12.70;59.90;;;;;;5055408;28;19922;-72
2021/04/03 04:35:05;;;;;;;;;;;12.70;57.10;;;;;;5054922;28;19909;-73
2021/04/03 04:37:31;;;;;;;;;;;12.70;57.60;;;;;;5038779;28;19912;-72
2021/04/03 04:39:58;;;;;;;;;;;12.70;58.90;;;;;;5054787;28;19994;-72
2021/04/03 04:42:24;;;;;;;;;;;12.60;60.70;;;;;;5056022;28;19909;-72
2021/04/03 04:44:50;;;;;;;;;;;12.60;58.20;;;;;;5056021;28;19920;-72
2021/04/03 04:47:16;;;;;;;;;;;12.80;57.10;;;;;;5056496;28;20335;-72
2021/04/03 04:49:42;;;;;;;;;;;12.70;57.20;;;;;;5057084;28;20219;-72
2021/04/03 04:52:08;;;;;;;;;;;12.70;56.70;;;;;;5056410;28;20341;-72
2021/04/03 04:54:34;;;;;;;;;;;12.70;55.80;;;;;;5057586;28;20285;-72
2021/04/03 04:57:00;;;;;;;;;;;12.70;56.90;;;;;;5056148;28;20239;-72
2021/04/03 04:59:27;;;;;;;;;;;12.70;56.10;;;;;;5055329;28;19939;-72
2021/04/03 05:01:53;;;;;;;;;;;12.70;55.50;;;;;;5054373;28;19908;-72
2021/04/03 05:04:19;;;;;;;;;;;12.70;54.90;;;;;;5051726;28;20326;-72
2021/04/03 05:06:45;;;;;;;;;;;12.70;55.20;;;;;;5057214;28;19991;-72
2021/04/03 05:09:11;;;;;;;;;;;12.60;57.70;;;;;;5053061;28;20054;-72
2021/04/03 05:11:37;;;;;;;;;;;12.60;56.10;;;;;;5054219;28;20258;-72
2021/04/03 05:14:03;;;;;;;;;;;12.60;55.20;;;;;;5037834;28;19913;-72
2021/04/03 05:16:29;;;;;;;;;;;12.70;55.90;;;;;;5055952;28;20012;-72
2021/04/03 05:18:56;;;;;;;;;;;12.70;55.70;;;;;;5056448;28;19909;-72
2021/04/03 05:21:22;;;;;;;;;;;12.80;57.90;;;;;;5056529;28;20334;-73
2021/04/03 05:23:48;;;;;;;;;;;12.90;57.90;;;;;;5055782;28;20338;-72
2021/04/03 05:26:14;;;;;;;;;;;13.00;57.60;;;;;;5054973;28;20004;-73
2021/04/03 05:28:40;;;;;;;;;;;12.90;56.30;;;;;;5056359;28;19916;-73
2021/04/03 05:31:06;;;;;;;;;;;12.90;56.70;;;;;;5054809;28;19974;-73
2021/04/03 05:33:32;;;;;;;;;;;12.90;57.00;;;;;;5056630;28;20318;-72
2021/04/03 05:35:58;;;;;;;;;;;12.90;57.80;;;;;;5056196;28;19935;-72
2021/04/03 05:38:24;;;;;;;;;;;13.00;57.00;;;;;;5054712;28;19912;-72
2021/04/03 05:40:52;;;;;;;;;;;13.00;57.80;;;;;;5038862;28;19905;-72
2021/04/03 05:43:19;;;;;;;;;;;12.90;57.80;;;;;;5055514;28;19909;-72
2021/04/03 05:45:46;;;;;;;;;;;12.90;57.50;;;;;;5055555;28;19959;-72
2021/04/03 05:48:12;;;;;;;;;;;12.90;57.80;;;;;;5056028;28;20222;-72
2021/04/03 05:50:38;;;;;;;;;;;13.00;58.20;;;;;;5055134;28;19948;-72
2021/04/03 05:53:04;;;;;;;;;;;13.10;57.80;;;;;;5037547;28;19913;-72
2021/04/03 05:55:31;;;;;;;;;;;13.00;57.50;;;;;;5037332;28;19916;-72
2021/04/03 05:57:57;;;;;;;;;;;13.00;58.00;;;;;;5053963;28;20319;-72
2021/04/03 06:00:23;;;;;;;;;;;13.00;58.20;;;;;;5055196;28;19940;-72
2021/04/03 06:02:51;;;;;;;;;;;12.90;58.40;;;;;;5056283;28;19912;-73
2021/04/03 06:05:17;;;;;;;;;;;12.90;57.30;;;;;;5060800;28;19909;-74
2021/04/03 06:07:43;;;;;;;;;;;13.00;56.90;;;;;;5059594;28;19909;-73
2021/04/03 06:10:10;;;;;;;;;;;12.90;57.40;;;;;;5053290;28;20053;-72
2021/04/03 06:12:38;;;;;;;;;;;12.90;56.80;;;;;;5048881;28;19962;-72
2021/04/03 06:15:05;;;;;;;;;;;13.00;57.20;;;;;;5053456;28;19909;-72
2021/04/03 06:17:31;;;;;;;;;;;13.00;57.30;;;;;;5053768;28;19912;-72
2021/04/03 06:19:58;;;;;;;;;;;13.00;57.40;;;;;;5053205;28;19920;-72
2021/04/03 06:22:24;;;;;;;;;;;13.10;57.60;;;;;;5053022;28;19999;-72
2021/04/03 06:25:02;;;;;;;;;;;13.20;58.40;;;;;;5055743;28;19905;-72
2021/04/03 06:27:29;;;;;;;;;;;13.30;57.90;;;;;;5035835;28;20342;-72
2021/04/03 06:29:56;;;;;;;;;;;13.30;58.10;;;;;;5052141;28;19934;-72
2021/04/03 06:32:23;;;;;;;;;;;13.40;57.70;;;;;;5036660;28;20296;-72
2021/04/03 06:34:51;;;;;;;;;;;13.40;58.20;;;;;;5053222;28;19934;-73
2021/04/03 06:37:43;;;;;;;;;;;13.30;57.80;;;;;;5051782;28;19921;-73
2021/04/03 06:40:11;;;;;;;;;;;13.30;57.60;;;;;;5049995;28;20357;-72
2021/04/03 06:42:38;;;;;;;;;;;13.20;57.70;;;;;;5053330;28;19909;-73
2021/04/03 06:45:20;;;;;;;;;;;13.40;57.40;;;;;;5054582;28;19915;-72
2021/04/03 06:47:46;;;;;;;;;;;13.30;56.90;;;;;;5049885;28;20302;-72
2021/04/03 06:50:16;;;;;;;;;;;13.40;57.10;;;;;;5050675;28;19909;-73
2021/04/03 06:52:42;;;;;;;;;;;13.30;56.50;;;;;;5053782;28;19913;-72
2021/04/03 06:55:12;;;;;;;;;;;13.30;57.10;;;;;;5054486;28;20339;-73
2021/04/03 06:57:40;;;;;;;;;;;13.40;57.30;;;;;;5053246;28;20306;-73
2021/04/03 07:00:07;;;;;;;;;;;13.40;57.10;;;;;;5053262;28;20297;-73
2021/04/03 07:02:38;;;;;;;;;;;13.20;56.80;;;;;;5050632;28;20258;-72
2021/04/03 07:05:05;;;;;;;;;;;13.30;57.00;;;;;;5052860;28;19966;-73
2021/04/03 07:07:33;;;;;;;;;;;13.40;57.70;;;;;;5054023;28;19909;-73
2021/04/03 07:10:00;;;;;;;;;;;13.40;56.50;;;;;;5052966;28;19916;-73
2021/04/03 07:12:27;;;;;;;;;;;13.40;57.70;;;;;;5051457;28;19928;-72
2021/04/03 07:14:54;;;;;;;;;;;13.40;57.50;;;;;;5053974;28;19908;-73
2021/04/03 07:17:21;;;;;;;;;;;13.40;57.70;;;;;;5049190;28;19908;-73
2021/04/03 07:19:47;;;;;;;;;;;13.50;57.10;;;;;;5053024;28;19909;-72
2021/04/03 07:22:14;;;;;;;;;;;13.50;57.60;;;;;;5052503;28;19916;-73
2021/04/03 07:24:40;;;;;;;;;;;13.40;57.30;;;;;;5052300;28;19966;-72
2021/04/03 07:27:06;;;;;;;;;;;13.40;57.80;;;;;;5052728;28;20330;-72
2021/04/03 07:29:39;;;;;;;;;;;13.40;57.50;;;;;;5036865;28;19946;-72
2021/04/03 07:32:05;;;;;;;;;;;13.40;58.20;;;;;;5034889;28;20806;-72
2021/04/03 07:34:40;;;;;;;;;;;13.30;57.10;;;;;;5053850;28;19956;-72
2021/04/03 07:37:09;;;;;;;;;;;13.20;57.60;;;;;;5052789;28;19988;-72
2021/04/03 07:39:37;;;;;;;;;;;13.20;58.00;;;;;;5052913;28;20009;-72
2021/04/03 07:42:04;;;;;;;;;;;13.20;57.40;;;;;;5052318;28;19923;-72
2021/04/03 07:44:33;;;;;;;;;;;13.20;58.10;;;;;;5052941;28;19909;-72
2021/04/03 07:47:20;;;;;;;;;;;13.20;57.50;;;;;;5051079;28;19908;-72
2021/04/03 07:50:04;;;;;;;;;;;13.20;57.20;;;;;;5052561;28;20099;-73
2021/04/03 07:52:49;;;;;;;;;;;13.20;57.60;;;;;;5052918;28;19913;-72
2021/04/03 07:55:33;;;;;;;;;;;13.30;57.70;;;;;;5045943;28;19909;-72
2021/04/03 07:58:18;;;;;;;;;;;13.20;57.30;;;;;;5052742;28;19947;-73
2021/04/03 08:00:45;;;;;;;;;;;13.10;56.80;;;;;;5057393;28;20243;-73
2021/04/03 08:03:11;;;;;;;;;;;13.00;56.60;;;;;;5038017;28;19920;-72
2021/04/03 08:05:38;;;;;;;;;;;12.90;56.60;;;;;;5035844;28;19908;-72
2021/04/03 08:08:05;;;;;;;;;;;12.90;56.50;;;;;;5051451;28;19908;-72
2021/04/03 08:10:31;;;;;;;;;;;13.00;57.20;;;;;;5051632;28;19919;-73
2021/04/03 08:12:57;;;;;;;;;;;12.90;57.80;;;;;;5034979;28;19916;-72
2021/04/03 08:15:26;;;;;;;;;;;12.70;56.60;;;;;;5051144;28;20246;-71
2021/04/03 08:17:52;;;;;;;;;;;12.80;57.60;;;;;;5032632;28;19999;-72
2021/04/03 08:20:19;;;;;;;;;;;12.70;56.40;;;;;;5053265;28;19915;-72
2021/04/03 08:23:05;;;;;;;;;;;12.60;56.40;;;;;;5034768;28;19918;-72
2021/04/03 08:25:31;;;;;;;;;;;12.60;57.10;;;;;;5053059;28;19954;-72
2021/04/03 08:27:57;;;;;;;;;;;12.70;57.70;;;;;;5051995;28;19909;-72
2021/04/03 08:30:33;;;;;;;;;;;12.70;58.00;;;;;;5050266;28;19917;-70
2021/04/03 08:33:18;;;;;;;;;;;12.70;57.30;;;;;;5048141;28;19928;-71
2021/04/03 08:35:48;;;;;;;;;;;12.70;58.50;;;;;;5033129;28;19920;-70
2021/04/03 08:38:16;;;;;;;;;;;12.70;57.60;;;;;;5031541;28;19919;-70
2021/04/03 08:40:43;;;;;;;;;;;12.60;57.20;;;;;;5052377;28;19948;-72
2021/04/03 08:43:15;;;;;;;;;;;12.50;57.20;;;;;;5052069;28;19923;-72
2021/04/03 08:45:42;;;;;;;;;;;12.40;57.00;;;;;;5051139;28;19970;-72
2021/04/03 08:48:09;;;;;;;;;;;12.40;58.30;;;;;;5034230;28;19942;-72
2021/04/03 08:50:36;;;;;;;;;;;12.50;57.30;;;;;;5051384;28;19985;-72
2021/04/03 08:53:04;;;;;;;;;;;12.40;58.60;;;;;;5052744;28;20334;-72
2021/04/03 08:55:30;;;;;;;;;;;12.40;57.40;;;;;;5052213;28;20273;-72
2021/04/03 08:57:57;;;;;;;;;;;12.30;57.60;;;;;;5051412;28;19978;-72
2021/04/03 09:00:23;;;;;;;;;;;12.30;58.50;;;;;;5054808;28;19909;-72
2021/04/03 09:02:51;;;;;;;;;;;12.30;59.30;;;;;;5054500;28;20290;-72
2021/04/03 09:05:18;;;;;;;;;;;12.30;57.10;;;;;;5055700;28;19939;-72
2021/04/03 09:07:44;;;;;;;;;;;12.30;57.60;;;;;;5037677;28;19908;-72
2021/04/03 09:10:20;;;;;;;;;;;12.30;56.80;;;;;;5037634;28;19948;-72
2021/04/03 09:12:48;;;;;;;;;;;12.40;57.10;;;;;;5055648;28;19923;-71
2021/04/03 09:15:16;;;;;;;;;;;12.30;57.00;;;;;;5054832;28;20238;-72
2021/04/03 09:17:49;;;;;;;;;;;12.40;57.90;;;;;;5054337;28;19962;-72
2021/04/03 09:20:19;;;;;;;;;;;12.50;57.10;;;;;;5053603;28;19980;-72
2021/04/03 09:22:45;;;;;;;;;;;12.40;56.80;;;;;;5056968;28;20326;-72
2021/04/03 09:25:12;;;;;;;;;;;12.40;57.40;;;;;;5055148;28;19912;-72
2021/04/03 09:27:38;;;;;;;;;;;12.40;57.00;;;;;;5038117;28;20377;-72
2021/04/03 09:30:11;;;;;;;;;;;12.30;56.90;;;;;;5054682;28;20350;-72
2021/04/03 09:32:41;;;;;;;;;;;12.20;57.10;;;;;;5055982;28;20007;-72
2021/04/03 09:35:07;;;;;;;;;;;12.30;57.50;;;;;;5054398;28;19913;-72
2021/04/03 09:37:33;;;;;;;;;;;12.30;57.40;;;;;;5054458;28;20007;-72
2021/04/03 09:40:00;;;;;;;;;;;12.30;56.30;;;;;;5055616;28;19920;-72
2021/04/03 09:42:29;;;;;;;;;;;12.30;56.50;;;;;;5055262;28;20500;-73
2021/04/03 09:44:57;;;;;;;;;;;12.20;56.60;;;;;;5055310;28;19923;-72
2021/04/03 09:47:24;;;;;;;;;;;12.20;56.70;;;;;;5054501;28;19916;-73
2021/04/03 09:49:50;;;;;;;;;;;12.20;56.90;;;;;;5056349;28;19948;-73
2021/04/03 09:52:16;;;;;;;;;;;12.20;56.30;;;;;;5054973;28;19939;-73
2021/04/03 09:54:43;;;;;;;;;;;12.10;56.40;;;;;;5056775;28;19951;-73
2021/04/03 09:57:10;;;;;;;;;;;12.10;56.30;;;;;;5040886;28;19913;-73
2021/04/03 09:59:36;;;;;;;;;;;12.00;56.40;;;;;;5059617;28;19908;-73
2021/04/03 10:02:02;;;;;;;;;;;12.00;56.00;;;;;;5058560;28;19920;-72
2021/04/03 10:04:31;;;;;;;;;;;12.00;56.10;;;;;;5052121;28;19912;-72
2021/04/03 10:06:57;;;;;;;;;;;12.00;56.00;;;;;;5053169;28;19948;-72
2021/04/03 10:09:24;;;;;;;;;;;12.00;56.10;;;;;;5054531;28;19909;-72
2021/04/03 10:11:51;;;;;;;;;;;12.00;56.10;;;;;;5036647;28;20257;-72
2021/04/03 10:14:17;;;;;;;;;;;12.00;56.20;;;;;;5053622;28;19908;-72
2021/04/03 10:16:43;;;;;;;;;;;11.90;56.20;;;;;;5055016;28;19983;-72
2021/04/03 10:19:09;;;;;;;;;;;11.90;56.40;;;;;;5055587;28;19920;-72
2021/04/03 10:21:35;;;;;;;;;;;11.90;56.20;;;;;;5055848;28;19943;-72
2021/04/03 10:24:01;;;;;;;;;;;11.90;56.10;;;;;;5035524;28;19959;-72
2021/04/03 10:26:28;;;;;;;;;;;11.90;56.00;;;;;;5051557;28;20347;-72
2021/04/03 10:28:54;;;;;;;;;;;11.90;56.20;;;;;;5051563;28;19948;-72
2021/04/03 10:31:21;;;;;;;;;;;11.90;55.90;;;;;;5053333;28;20007;-73
2021/04/03 10:33:47;;;;;;;;;;;11.90;55.90;;;;;;5052059;28;19912;-72
2021/04/03 10:36:13;;;;;;;;;;;11.80;55.50;;;;;;5052963;28;19919;-73
2021/04/03 10:38:39;;;;;;;;;;;11.80;56.00;;;;;;5032119;28;19920;-73
2021/04/03 10:41:07;;;;;;;;;;;11.80;56.20;;;;;;5055285;28;19970;-73
2021/04/03 10:43:33;;;;;;;;;;;11.80;56.10;;;;;;5053808;28;19916;-72
2021/04/03 10:45:59;;;;;;;;;;;11.70;55.70;;;;;;5053887;28;19916;-72
2021/04/03 10:48:25;;;;;;;;;;;11.70;55.90;;;;;;5047412;28;21020;-72
2021/04/03 10:50:51;;;;;;;;;;;11.70;56.20;;;;;;5054080;28;19909;-72
2021/04/03 10:53:18;;;;;;;;;;;11.60;55.50;;;;;;5052628;28;19954;-72
2021/04/03 10:55:44;;;;;;;;;;;11.60;55.90;;;;;;5053897;28;19959;-72
2021/04/03 10:58:11;;;;;;;;;;;11.60;56.00;;;;;;5052319;28;19970;-72
2021/04/03 11:00:38;;;;;;;;;;;11.50;56.40;;;;;;5053243;28;19913;-72
2021/04/03 11:03:04;;;;;;;;;;;11.60;57.20;;;;;;5051220;28;19918;-72
2021/04/03 11:05:30;;;;;;;;;;;11.60;57.00;;;;;;5052704;28;19913;-72
2021/04/03 11:07:57;;;;;;;;;;;11.70;57.50;;;;;;5052124;28;19908;-72
2021/04/03 11:10:23;;;;;;;;;;;11.70;57.30;;;;;;5053539;28;19908;-72
2021/04/03 11:12:49;;;;;;;;;;;11.80;57.50;;;;;;5051734;28;20341;-72
2021/04/03 11:15:15;;;;;;;;;;;11.80;57.60;;;;;;5052191;28;19951;-72
2021/04/03 11:17:41;;;;;;;;;;;11.80;57.90;;;;;;5050376;28;20261;-72
2021/04/03 11:20:09;;;;;;;;;;;11.90;59.20;;;;;;5052829;28;19951;-72
2021/04/03 11:22:35;;;;;;;;;;;12.00;58.00;;;;;;5052921;28;20334;-72
2021/04/03 11:25:01;;;;;;;;;;;12.00;57.50;;;;;;5052197;28;19970;-72
2021/04/03 11:27:27;;;;;;;;;;;12.00;58.00;;;;;;5051331;28;20241;-72
2021/04/03 11:29:53;;;;;;;;;;;12.10;57.30;;;;;;5053172;28;19909;-72
2021/04/03 11:32:19;;;;;;;;;;;12.20;57.70;;;;;;5052144;28;19942;-72
2021/04/03 11:34:45;;;;;;;;;;;12.20;57.90;;;;;;5052836;28;19916;-72
2021/04/03 11:37:11;;;;;;;;;;;12.30;58.20;;;;;;5051540;28;20422;-72
2021/04/03 11:39:39;;;;;;;;;;;12.50;58.50;;;;;;5052760;28;20011;-72
2021/04/03 11:42:06;;;;;;;;;;;12.50;58.00;;;;;;5053685;28;19916;-72
2021/04/03 11:44:32;;;;;;;;;;;12.50;57.70;;;;;;5052859;28;19952;-72
2021/04/03 11:46:58;;;;;;;;;;;12.50;57.50;;;;;;5054158;28;19943;-72
2021/04/03 11:49:24;;;;;;;;;;;12.50;57.20;;;;;;5055001;28;20254;-72
2021/04/03 11:51:51;;;;;;;;;;;12.40;57.30;;;;;;5053545;28;20015;-72
2021/04/03 11:54:17;;;;;;;;;;;12.50;57.30;;;;;;5056349;28;20234;-73
2021/04/03 11:56:43;;;;;;;;;;;12.50;56.90;;;;;;5056649;28;19913;-73
2021/04/03 11:59:09;;;;;;;;;;;12.50;57.00;;;;;;5055963;28;20304;-72
2021/04/03 12:01:36;;;;;;;;;;;12.50;56.90;;;;;;5034262;28;19908;-72
2021/04/03 12:04:02;;;;;;;;;;;12.60;57.10;;;;;;5050198;28;19916;-72
2021/04/03 12:06:28;;;;;;;;;;;12.60;57.10;;;;;;5051625;28;19955;-72
2021/04/03 12:08:54;;;;;;;;;;;12.60;56.60;;;;;;5051317;28;19912;-72
2021/04/03 12:11:20;;;;;;;;;;;12.60;56.90;;;;;;5052250;28;19916;-72
2021/04/03 12:13:46;;;;;;;;;;;12.70;56.90;;;;;;5053398;28;19951;-72
2021/04/03 12:16:12;;;;;;;;;;;12.70;56.90;;;;;;5050452;28;20251;-72
2021/04/03 12:18:39;;;;;;;;;;;12.60;56.60;;;;;;5033645;28;19908;-72
2021/04/03 12:21:05;;;;;;;;;;;12.70;56.80;;;;;;5052068;28;19913;-72
2021/04/03 12:23:31;;;;;;;;;;;12.70;56.90;;;;;;5053165;28;19912;-72
2021/04/03 12:25:57;;;;;;;;;;;12.70;56.60;;;;;;5051773;28;19931;-72
2021/04/03 12:28:23;;;;;;;;;;;12.70;56.70;;;;;;5051607;28;20338;-72
2021/04/03 12:30:49;;;;;;;;;;;12.80;56.50;;;;;;5050940;28;19913;-72
2021/04/03 12:33:15;;;;;;;;;;;12.70;56.70;;;;;;5052991;28;19962;-72
2021/04/03 12:35:41;;;;;;;;;;;12.70;56.70;;;;;;5039235;28;19919;-72
2021/04/03 12:38:07;;;;;;;;;;;12.70;56.80;;;;;;5054768;28;20019;-72
2021/04/03 12:40:33;;;;;;;;;;;12.60;56.40;;;;;;5038105;28;20003;-72
2021/04/03 12:42:59;;;;;;;;;;;12.60;56.30;;;;;;5056341;28;19966;-72
2021/04/03 12:45:25;;;;;;;;;;;12.60;57.10;;;;;;5051015;28;20224;-72
2021/04/03 12:47:51;;;;;;;;;;;12.60;56.50;;;;;;5055490;28;19944;-72
2021/04/03 12:50:17;;;;;;;;;;;12.60;56.10;;;;;;5055851;28;19916;-72
2021/04/03 12:52:43;;;;;;;;;;;12.60;56.60;;;;;;5054965;28;19920;-72
2021/04/03 12:55:09;;;;;;;;;;;12.70;56.40;;;;;;5055707;28;20349;-72
2021/04/03 12:57:36;;;;;;;;;;;12.70;56.00;;;;;;5056060;28;19913;-72
2021/04/03 13:00:03;;;;;;;;;;;12.70;56.30;;;;;;5056587;28;19908;-72
2021/04/03 13:02:29;;;;;;;;;;;12.70;56.20;;;;;;5055137;28;19916;-72
2021/04/03 13:04:55;;;;;;;;;;;12.60;56.10;;;;;;5055082;28;20059;-72
2021/04/03 13:07:21;;;;;;;;;;;12.70;56.00;;;;;;5055921;28;20337;-72
2021/04/03 13:09:47;;;;;;;;;;;12.60;55.50;;;;;;5055804;28;19942;-72
2021/04/03 13:12:13;;;;;;;;;;;12.60;55.70;;;;;;5054837;28;20007;-71
2021/04/03 13:14:39;;;;;;;;;;;12.60;56.00;;;;;;5055345;28;19912;-72
2021/04/03 13:17:05;;;;;;;;;;;12.60;56.00;;;;;;5056543;28;20250;-72
2021/04/03 13:19:31;;;;;;;;;;;12.50;55.90;;;;;;5054829;28;19916;-72
2021/04/03 13:21:57;;;;;;;;;;;12.40;55.50;;;;;;5052756;28;19912;-72
2021/04/03 13:24:23;;;;;;;;;;;12.50;56.00;;;;;;5056185;28;19908;-72
2021/04/03 13:26:49;;;;;;;;;;;12.40;56.00;;;;;;5056410;28;19936;-72
2021/04/03 13:29:15;;;;;;;;;;;12.40;56.30;;;;;;5056461;28;19960;-72
2021/04/03 13:31:41;;;;;;;;;;;12.30;55.80;;;;;;5055471;28;20029;-73
2021/04/03 13:34:07;;;;;;;;;;;12.20;56.40;;;;;;5052134;28;19924;-72
2021/04/03 13:36:33;;;;;;;;;;;12.30;56.10;;;;;;5054255;28;19912;-73
2021/04/03 13:39:00;;;;;;;;;;;12.20;56.20;;;;;;5054283;28;19946;-72
2021/04/03 13:41:26;;;;;;;;;;;12.20;56.30;;;;;;5055283;28;19915;-72
2021/04/03 13:43:52;;;;;;;;;;;12.30;56.90;;;;;;5055303;28;19909;-72
2021/04/03 13:46:18;;;;;;;;;;;12.20;56.60;;;;;;5053623;28;19963;-72
2021/04/03 13:48:44;;;;;;;;;;;12.20;56.70;;;;;;5038533;28;19962;-72
2021/04/03 13:51:10;;;;;;;;;;;12.30;56.50;;;;;;5057965;28;19946;-74
2021/04/03 13:53:36;;;;;;;;;;;12.30;56.40;;;;;;5059898;28;20253;-71
2021/04/03 13:56:02;;;;;;;;;;;12.20;56.50;;;;;;5057839;28;20318;-72
2021/04/03 13:58:28;;;;;;;;;;;12.30;56.80;;;;;;5054559;28;19916;-72
2021/04/03 14:00:54;;;;;;;;;;;12.30;56.50;;;;;;5054788;28;19938;-72
2021/04/03 14:03:20;;;;;;;;;;;12.40;56.90;;;;;;5054887;28;20220;-73
2021/04/03 14:05:47;;;;;;;;;;;12.40;57.00;;;;;;5050243;28;20050;-72
2021/04/03 14:08:13;;;;;;;;;;;12.40;56.90;;;;;;5052485;28;19958;-73
2021/04/03 14:10:39;;;;;;;;;;;12.40;56.80;;;;;;5053835;28;19912;-73
2021/04/03 14:13:05;;;;;;;;;;;12.40;56.70;;;;;;5038646;28;19916;-72
2021/04/03 14:15:32;;;;;;;;;;;12.40;56.30;;;;;;5053826;28;19908;-73
2021/04/03 14:17:58;;;;;;;;;;;12.50;56.60;;;;;;5055193;28;20223;-72